Terminal Aerodrome Forecast
Issued by NWS Tampa Bay Area, FL

Home | Current Version | Previous Version | Text Only | Print | Product List | Glossary Off
Versions: 1 2 3 4 5 6 7 8 9 10 11 12 13 14 15 16

000
FTUS42 KTBW 231129
TAFFMY
TAF
KFMY 231129Z 2312/2412 07006KT P6SM SCT025 SCT250
     FM231700 08008KT P6SM VCTS SCT030CB SCT100 BKN250
     FM232000 09008KT P6SM VCTS BKN035CB BKN100 OVC250
     FM240300 10006KT P6SM BKN040 BKN100 OVC250=

USA.gov is the U.S. government's official web portal to all federal, state and local government web resources and services.